createdAt,value
2019-01-09T19:21:28.886Z,78.07
2019-01-09T19:24:01.244Z,70.53
2019-01-09T19:26:32.746Z,82.33
2019-01-09T19:29:04.298Z,67.63
2019-01-09T19:31:36.006Z,92.93
2019-01-09T19:34:07.327Z,82.57
2019-01-09T19:36:38.510Z,102.90
2019-01-09T19:39:10.558Z,98.87
2019-01-09T19:41:41.814Z,106.37
2019-01-09T19:44:13.265Z,107.77
2019-01-09T19:46:45.613Z,95.10
2019-01-09T19:49:18.015Z,102.63
2019-01-09T19:51:49.213Z,95.60
2019-01-09T19:54:20.376Z,105.83
2019-01-09T19:56:51.868Z,89.13
2019-01-09T19:59:23.132Z,79.33
2019-01-09T20:01:54.259Z,73.97
2019-01-09T20:04:25.454Z,71.77
2019-01-09T20:06:56.588Z,82.97
2019-01-09T20:09:27.926Z,89.63
2019-01-09T20:11:59.127Z,96.43
2019-01-09T20:14:30.554Z,86.97
2019-01-09T20:17:03.041Z,78.57
2019-01-09T20:19:34.645Z,75.30
2019-01-09T20:22:05.921Z,74.07
2019-01-09T20:24:37.364Z,84.07
2019-01-09T20:27:08.610Z,67.27
2019-01-09T20:29:40.251Z,57.63
2019-01-09T20:32:11.389Z,68.23
2019-01-09T20:34:42.695Z,66.50
2019-01-09T20:37:14.355Z,56.77
2019-01-09T20:39:45.792Z,49.53
2019-01-09T20:42:16.908Z,49.27
2019-01-09T20:44:48.022Z,52.07
2019-01-09T20:47:19.874Z,48.87
2019-01-09T20:49:51.134Z,49.23
2019-01-09T20:52:22.374Z,54.27
2019-01-09T20:54:54.279Z,52.40
2019-01-09T20:57:25.422Z,49.50
2019-01-09T20:59:56.585Z,49.23
2019-01-09T21:02:28.066Z,51.50
2019-01-09T21:04:59.719Z,54.97
2019-01-09T21:07:31.054Z,53.87
2019-01-09T21:10:02.204Z,51.57
2019-01-09T21:12:33.433Z,59.73
2019-01-09T21:15:05.216Z,55.93
2019-01-09T21:17:36.319Z,58.13
2019-01-09T21:20:10.177Z,64.03
2019-01-09T21:22:41.521Z,63.10
2019-01-09T21:25:13.044Z,59.37
2019-01-09T21:27:44.896Z,64.77
2019-01-09T21:30:18.296Z,66.33
2019-01-09T21:32:50.730Z,72.57
2019-01-09T21:35:24.468Z,73.10
2019-01-09T21:37:56.856Z,72.80
2019-01-09T21:40:30.497Z,79.90
2019-01-09T21:43:03.028Z,80.60
2019-01-09T21:45:35.184Z,82.83
2019-01-09T21:48:08.654Z,74.53
2019-01-09T21:50:39.880Z,80.10
2019-01-09T21:53:11.972Z,78.23
2019-01-09T21:55:44.146Z,86.20
2019-01-09T21:58:15.956Z,78.07
2019-01-09T22:00:50.276Z,80.97
2019-01-09T22:03:23.226Z,83.60
2019-01-09T22:05:56.427Z,86.27
2019-01-09T22:08:27.756Z,109.57
2019-01-09T22:10:59.683Z,99.90
2019-01-09T22:13:31.837Z,103.80
2019-01-09T22:16:05.365Z,114.67
2019-01-09T22:18:36.691Z,106.80
2019-01-09T22:21:08.789Z,102.00
2019-01-09T22:23:40.547Z,100.13
2019-01-09T22:26:11.690Z,114.10
2019-01-09T22:28:43.250Z,107.47
2019-01-09T22:31:15.246Z,92.83
2019-01-09T22:33:47.787Z,95.40
2019-01-09T22:36:19.207Z,89.47
2019-01-09T22:38:51.750Z,96.13
2019-01-09T22:41:25.511Z,85.50
2019-01-09T22:43:57.947Z,90.70
2019-01-09T22:46:30.946Z,75.70
2019-01-09T22:49:02.755Z,89.57
2019-01-09T22:51:34.054Z,78.53
2019-01-09T22:54:07.505Z,83.10
2019-01-09T22:56:39.698Z,87.20
2019-01-09T22:59:11.935Z,89.27
2019-01-09T23:01:45.056Z,91.27
2019-01-09T23:04:17.136Z,95.80
2019-01-09T23:06:48.758Z,91.53
2019-01-09T23:09:21.536Z,110.77
2019-01-09T23:11:53.769Z,95.60
2019-01-09T23:14:25.973Z,97.33
2019-01-09T23:16:57.184Z,102.90
2019-01-09T23:19:28.825Z,100.47
2019-01-09T23:22:01.009Z,103.90
2019-01-09T23:24:33.226Z,91.53
2019-01-09T23:27:06.618Z,101.53
2019-01-09T23:29:37.871Z,105.80
2019-01-09T23:32:09.747Z,105.67
2019-01-09T23:34:43.326Z,105.33
2019-01-09T23:37:14.822Z,104.53
2019-01-09T23:39:48.050Z,114.67
2019-01-09T23:42:30.063Z,109.47
2019-01-09T23:44:54.268Z,111.20
2019-01-09T23:47:25.992Z,117.97
2019-01-09T23:50:00.603Z,104.53
2019-01-09T23:52:33.395Z,107.57
2019-01-09T23:55:06.745Z,116.87
2019-01-09T23:57:37.866Z,115.63
